createdAt,value
2018-11-25T00:00:24.962Z,100708.71
2018-11-25T00:02:53.667Z,100708.80
2018-11-25T00:05:22.204Z,100700.39
2018-11-25T00:07:50.739Z,100698.72
2018-11-25T00:10:19.248Z,100699.48
2018-11-25T00:12:47.815Z,100710.98
2018-11-25T00:15:16.512Z,100708.55
2018-11-25T00:17:45.034Z,100702.95
2018-11-25T00:20:14.336Z,100708.50
2018-11-25T00:22:43.537Z,100702.09
2018-11-25T00:25:13.286Z,100700.33
2018-11-25T00:27:41.814Z,100696.98
2018-11-25T00:30:13.649Z,100699.42
2018-11-25T00:32:42.256Z,100691.85
2018-11-25T00:35:11.977Z,100689.70
2018-11-25T00:37:47.537Z,100693.86
2018-11-25T00:40:10.814Z,100698.15
2018-11-25T00:42:39.514Z,100697.34
2018-11-25T00:45:12.611Z,100693.28
2018-11-25T00:47:41.400Z,100699.70
2018-11-25T00:50:11.420Z,100689.98
2018-11-25T00:52:40.122Z,100691.20
2018-11-25T00:55:10.435Z,100689.89
2018-11-25T00:57:39.034Z,100688.96
2018-11-25T01:00:14.543Z,100686.88
2018-11-25T01:02:43.196Z,100688.19
2018-11-25T01:05:12.161Z,100689.55
2018-11-25T01:07:40.770Z,100690.00
2018-11-25T01:10:10.909Z,100683.18
2018-11-25T01:12:39.599Z,100685.30
2018-11-25T01:15:11.091Z,100687.28
2018-11-25T01:17:39.732Z,100684.28
2018-11-25T01:20:10.877Z,100680.05
2018-11-25T01:22:39.663Z,100680.52
2018-11-25T01:25:09.395Z,100685.24
2018-11-25T01:27:38.004Z,100684.80
2018-11-25T01:30:10.364Z,100689.53
2018-11-25T01:32:38.966Z,100684.89
2018-11-25T01:35:08.770Z,100682.42
2018-11-25T01:37:37.536Z,100683.34
2018-11-25T01:40:09.024Z,100679.92
2018-11-25T01:42:38.011Z,100675.72
2018-11-25T01:45:07.924Z,100677.50
2018-11-25T01:47:36.440Z,100673.22
2018-11-25T01:50:06.887Z,100673.11
2018-11-25T01:52:35.443Z,100672.30
2018-11-25T01:55:04.068Z,100667.57
2018-11-25T01:57:32.599Z,100661.20
2018-11-25T02:00:01.325Z,100664.20
2018-11-25T02:02:29.968Z,100667.16
2018-11-25T02:04:58.623Z,100662.88
2018-11-25T02:07:27.272Z,100658.89
2018-11-25T02:09:55.841Z,100657.17
2018-11-25T02:12:24.371Z,100656.80
2018-11-25T02:14:53.027Z,100654.67
2018-11-25T02:17:21.640Z,100657.73
2018-11-25T02:19:50.301Z,100654.79
2018-11-25T02:22:18.881Z,100650.91
2018-11-25T02:24:47.430Z,100649.64
2018-11-25T02:27:15.915Z,100647.55
2018-11-25T02:29:44.537Z,100646.30
2018-11-25T02:32:13.089Z,100647.56
2018-11-25T02:34:41.648Z,100642.94
2018-11-25T02:37:10.161Z,100644.66
2018-11-25T02:39:38.779Z,100643.75
2018-11-25T02:42:07.339Z,100647.09
2018-11-25T02:44:35.841Z,100641.50
2018-11-25T02:47:04.357Z,100641.89
2018-11-25T02:49:32.853Z,100646.94
2018-11-25T02:52:01.439Z,100646.07
2018-11-25T02:54:30.117Z,100647.45
2018-11-25T02:56:58.640Z,100648.38
2018-11-25T02:59:27.312Z,100644.95
2018-11-25T03:01:55.815Z,100645.47
2018-11-25T03:04:24.474Z,100644.50
2018-11-25T03:06:53.011Z,100640.98
2018-11-25T03:09:21.793Z,100647.39
2018-11-25T03:11:50.366Z,100642.30
2018-11-25T03:14:19.013Z,100638.02
2018-11-25T03:16:47.529Z,100636.75
2018-11-25T03:19:16.137Z,100639.66
2018-11-25T03:21:44.733Z,100640.17
2018-11-25T03:24:13.353Z,100639.34
2018-11-25T03:26:41.973Z,100640.68
2018-11-25T03:29:10.512Z,100643.68
2018-11-25T03:31:39.102Z,100645.01
2018-11-25T03:34:07.610Z,100639.76
2018-11-25T03:36:36.144Z,100638.09
2018-11-25T03:39:06.298Z,100637.74
2018-11-25T03:41:34.816Z,100645.42
2018-11-25T03:44:03.326Z,100642.07
2018-11-25T03:46:31.853Z,100640.74
2018-11-25T03:49:00.393Z,100643.59
2018-11-25T03:51:29.032Z,100642.66
2018-11-25T03:53:57.595Z,100646.83
2018-11-25T03:56:26.381Z,100645.15
2018-11-25T03:58:54.970Z,100641.21
2018-11-25T04:01:23.585Z,100638.72
2018-11-25T04:03:52.096Z,100634.96
2018-11-25T04:06:20.654Z,100638.78
2018-11-25T04:08:49.335Z,100638.02
2018-11-25T04:11:17.972Z,100639.76
2018-11-25T04:13:46.476Z,100636.30
2018-11-25T04:16:15.132Z,100642.19
2018-11-25T04:18:43.713Z,100642.66
2018-11-25T04:21:15.050Z,100648.67
2018-11-25T04:23:44.000Z,100647.50
2018-11-25T04:26:12.533Z,100645.36
2018-11-25T04:28:41.124Z,100644.60
2018-11-25T04:31:09.691Z,100644.61
2018-11-25T04:33:38.364Z,100645.54
2018-11-25T04:36:06.918Z,100642.12
2018-11-25T04:38:35.510Z,100638.31
2018-11-25T04:41:04.069Z,100641.20
2018-11-25T04:43:32.777Z,100639.02
2018-11-25T04:46:01.556Z,100641.09
2018-11-25T04:48:30.088Z,100641.56
2018-11-25T04:50:58.648Z,100640.33
2018-11-25T04:53:27.184Z,100642.99
2018-11-25T04:55:55.943Z,100637.89
2018-11-25T04:58:24.455Z,100642.53
2018-11-25T05:00:53.126Z,100648.08
2018-11-25T05:03:21.689Z,100647.67
2018-11-25T05:05:50.411Z,100651.03
2018-11-25T05:08:19.068Z,100645.89
2018-11-25T05:10:47.915Z,100647.14
2018-11-25T05:13:16.514Z,100639.47
2018-11-25T05:15:45.093Z,100646.28
2018-11-25T05:18:13.910Z,100640.56
2018-11-25T05:20:42.546Z,100641.73
2018-11-25T05:23:11.160Z,100644.80
2018-11-25T05:25:39.886Z,100637.17
2018-11-25T05:28:08.438Z,100640.73
2018-11-25T05:30:36.956Z,100647.14
2018-11-25T05:33:05.534Z,100643.68
2018-11-25T05:35:34.056Z,100648.77
2018-11-25T05:38:02.618Z,100646.75
2018-11-25T05:40:31.291Z,100641.65
2018-11-25T05:42:59.811Z,100642.88
2018-11-25T05:45:28.655Z,100648.02
2018-11-25T05:47:57.493Z,100648.13
2018-11-25T05:50:26.038Z,100644.32
2018-11-25T05:52:54.753Z,100650.73
2018-11-25T05:55:23.297Z,100646.45
2018-11-25T05:57:52.070Z,100648.19
2018-11-25T06:00:32.513Z,100643.95
2018-11-25T06:03:01.719Z,100652.70
2018-11-25T06:05:30.358Z,100654.44
2018-11-25T06:07:58.889Z,100654.85
2018-11-25T06:10:27.480Z,100654.50
2018-11-25T06:12:56.075Z,100653.27
2018-11-25T06:15:24.589Z,100655.00
2018-11-25T06:17:53.091Z,100656.69
2018-11-25T06:20:21.683Z,100658.06
2018-11-25T06:22:50.278Z,100663.56
2018-11-25T06:25:20.146Z,100667.02
2018-11-25T06:27:48.803Z,100671.20
2018-11-25T06:30:19.160Z,100668.25
2018-11-25T06:32:47.756Z,100669.05
2018-11-25T06:35:17.175Z,100672.56
2018-11-25T06:37:45.696Z,100674.16
2018-11-25T06:40:16.472Z,100676.34
2018-11-25T06:42:45.040Z,100672.98
2018-11-25T06:45:15.056Z,100676.84
2018-11-25T06:47:43.744Z,100679.28
2018-11-25T06:50:12.939Z,100681.47
2018-11-25T06:52:41.514Z,100685.69
2018-11-25T06:55:12.230Z,100689.41
2018-11-25T06:57:40.828Z,100684.67
2018-11-25T07:00:15.502Z,100682.83
2018-11-25T07:02:44.073Z,100687.56
2018-11-25T07:05:12.671Z,100680.38
2018-11-25T07:07:41.203Z,100683.80
2018-11-25T07:10:11.487Z,100680.85
2018-11-25T07:12:40.225Z,100682.47
2018-11-25T07:15:13.191Z,100683.70
2018-11-25T07:17:41.750Z,100687.57
2018-11-25T07:20:11.557Z,100682.98
2018-11-25T07:22:40.054Z,100691.95
2018-11-25T07:25:13.814Z,100701.73
2018-11-25T07:27:42.442Z,100693.16
2018-11-25T07:30:27.769Z,100691.44
2018-11-25T07:32:56.563Z,100696.47
2018-11-25T07:35:26.201Z,100695.70
2018-11-25T07:37:54.833Z,100696.28
2018-11-25T07:40:24.086Z,100696.30
2018-11-25T07:42:52.601Z,100700.11
2018-11-25T07:45:29.767Z,100699.28
2018-11-25T07:47:50.978Z,100705.53
2018-11-25T07:50:19.576Z,100706.05
2018-11-25T07:52:48.807Z,100703.17
2018-11-25T07:55:18.436Z,100702.41
2018-11-25T07:57:47.372Z,100703.67
2018-11-25T08:00:17.095Z,100704.61
2018-11-25T08:02:45.632Z,100702.97
2018-11-25T08:05:15.490Z,100695.81
2018-11-25T08:07:43.978Z,100702.98
2018-11-25T08:10:15.382Z,100702.77
2018-11-25T08:12:44.132Z,100700.23
2018-11-25T08:15:14.570Z,100699.44
2018-11-25T08:17:43.118Z,100693.52
2018-11-25T08:20:13.004Z,100702.13
2018-11-25T08:22:41.682Z,100699.07
2018-11-25T08:25:14.276Z,100699.08
2018-11-25T08:27:42.842Z,100704.87
2018-11-25T08:30:14.254Z,100704.52
2018-11-25T08:32:42.935Z,100702.42
2018-11-25T08:35:12.104Z,100708.69
2018-11-25T08:37:40.759Z,100700.28
2018-11-25T08:40:14.285Z,100709.70
2018-11-25T08:42:42.813Z,100710.67
2018-11-25T08:45:12.355Z,100703.44
2018-11-25T08:47:40.959Z,100703.80
2018-11-25T08:50:18.262Z,100707.66
2018-11-25T08:52:48.933Z,100705.63
2018-11-25T08:55:24.520Z,100707.52
2018-11-25T08:57:53.421Z,100704.52
2018-11-25T09:00:23.189Z,100711.85
2018-11-25T09:02:52.629Z,100710.63
2018-11-25T09:05:21.280Z,100705.13
2018-11-25T09:07:49.880Z,100709.06
2018-11-25T09:10:19.663Z,100711.95
2018-11-25T09:12:56.580Z,100709.81
2018-11-25T09:15:27.115Z,100714.50
2018-11-25T09:17:55.758Z,100710.33
2018-11-25T09:20:24.424Z,100709.92
2018-11-25T09:22:53.385Z,100712.47
2018-11-25T09:25:23.311Z,100712.52
2018-11-25T09:27:52.142Z,100709.56
2018-11-25T09:30:23.154Z,100713.75
2018-11-25T09:32:51.725Z,100711.70
2018-11-25T09:35:20.432Z,100716.08
2018-11-25T09:37:49.086Z,100713.58
2018-11-25T09:40:22.725Z,100719.80
2018-11-25T09:42:51.624Z,100720.97
2018-11-25T09:45:20.736Z,100721.44
2018-11-25T09:47:49.700Z,100718.98
2018-11-25T09:50:20.394Z,100717.36
2018-11-25T09:52:48.971Z,100722.96
2018-11-25T09:55:19.549Z,100718.58
2018-11-25T09:57:55.628Z,100720.98
2018-11-25T10:00:27.532Z,100724.85
2018-11-25T10:02:56.302Z,100718.68
2018-11-25T10:05:24.995Z,100724.69
2018-11-25T10:07:53.629Z,100726.78
2018-11-25T10:10:23.256Z,100724.55
2018-11-25T10:12:52.000Z,100721.18
2018-11-25T10:15:21.821Z,100722.09
2018-11-25T10:17:50.435Z,100730.65
2018-11-25T10:20:21.055Z,100720.10
2018-11-25T10:22:49.701Z,100723.06
2018-11-25T10:25:18.378Z,100722.25
2018-11-25T10:27:47.183Z,100725.25
2018-11-25T10:30:21.619Z,100732.48
2018-11-25T10:32:55.555Z,100729.98
2018-11-25T10:35:24.165Z,100735.94
2018-11-25T10:37:52.784Z,100737.68
2018-11-25T10:40:22.904Z,100735.13
2018-11-25T10:42:51.715Z,100729.48
2018-11-25T10:45:22.595Z,100720.52
2018-11-25T10:47:51.262Z,100717.20
2018-11-25T10:50:20.719Z,100714.61
2018-11-25T10:52:49.671Z,100710.02
2018-11-25T10:55:19.155Z,100715.56
2018-11-25T10:57:49.513Z,100719.89
2018-11-25T11:00:34.261Z,100713.94
2018-11-25T11:03:08.017Z,100712.16
2018-11-25T11:05:42.011Z,100719.25
2018-11-25T11:08:10.932Z,100712.02
2018-11-25T11:10:39.568Z,100719.29
2018-11-25T11:13:08.850Z,100717.66
2018-11-25T11:15:37.590Z,100708.38
2018-11-25T11:18:06.853Z,100705.88
2018-11-25T11:20:35.485Z,100708.47
2018-11-25T11:23:04.038Z,100708.07
2018-11-25T11:25:32.718Z,100706.44
2018-11-25T11:28:01.368Z,100705.63
2018-11-25T11:30:29.944Z,100703.16
2018-11-25T11:32:58.597Z,100698.06
2018-11-25T11:35:27.244Z,100700.05
2018-11-25T11:37:55.773Z,100705.94
2018-11-25T11:40:24.418Z,100709.44
2018-11-25T11:42:53.024Z,100702.16
2018-11-25T11:45:21.595Z,100704.25
2018-11-25T11:47:50.673Z,100704.30
2018-11-25T11:50:20.802Z,100706.07
2018-11-25T11:52:49.429Z,100699.39
2018-11-25T11:55:18.713Z,100696.06
2018-11-25T11:57:48.210Z,100691.42
2018-11-25T12:00:25.947Z,100696.02
2018-11-25T12:02:54.544Z,100695.16
2018-11-25T12:05:23.208Z,100689.23
2018-11-25T12:07:51.814Z,100695.20
2018-11-25T12:10:20.705Z,100695.14
2018-11-25T12:12:49.407Z,100691.28
2018-11-25T12:15:29.928Z,100689.64
2018-11-25T12:17:51.220Z,100694.79
2018-11-25T12:20:21.433Z,100693.14
2018-11-25T12:22:51.218Z,100691.50
2018-11-25T12:25:19.944Z,100694.09
2018-11-25T12:27:49.524Z,100699.20
2018-11-25T12:30:18.239Z,100705.20
2018-11-25T12:32:48.533Z,100699.66
2018-11-25T12:35:18.008Z,100697.52
2018-11-25T12:37:46.701Z,100699.20
2018-11-25T12:40:18.765Z,100700.02
2018-11-25T12:42:48.727Z,100696.70
2018-11-25T12:45:18.245Z,100697.14
2018-11-25T12:47:46.942Z,100698.91
2018-11-25T12:50:21.213Z,100693.03
2018-11-25T12:52:49.940Z,100686.62
2018-11-25T12:55:19.871Z,100690.56
2018-11-25T12:57:48.726Z,100690.52
2018-11-25T13:00:25.863Z,100694.80
2018-11-25T13:02:55.628Z,100691.80
2018-11-25T13:05:24.250Z,100696.41
2018-11-25T13:07:53.066Z,100693.40
2018-11-25T13:10:21.667Z,100693.36
2018-11-25T13:12:50.289Z,100689.00
2018-11-25T13:15:18.941Z,100689.09
2018-11-25T13:17:48.563Z,100681.85
2018-11-25T13:20:17.602Z,100678.06
2018-11-25T13:22:46.198Z,100686.20
2018-11-25T13:25:16.059Z,100686.62
2018-11-25T13:27:44.899Z,100685.75
2018-11-25T13:30:20.212Z,100680.32
2018-11-25T13:32:48.024Z,100677.33
2018-11-25T13:35:16.821Z,100670.87
2018-11-25T13:37:45.509Z,100671.36
2018-11-25T13:40:15.121Z,100676.05
2018-11-25T13:42:43.819Z,100670.95
2018-11-25T13:45:12.527Z,100671.40
2018-11-25T13:47:41.181Z,100670.50
2018-11-25T13:50:12.033Z,100676.05
2018-11-25T13:52:40.864Z,100673.88
2018-11-25T13:55:14.427Z,100672.68
2018-11-25T13:57:43.012Z,100671.86
2018-11-25T14:01:17.889Z,100671.28
2018-11-25T14:03:46.614Z,100675.96
2018-11-25T14:06:15.760Z,100673.00
2018-11-25T14:08:46.958Z,100673.41
2018-11-25T14:11:15.946Z,100674.28
2018-11-25T14:13:45.312Z,100685.75
2018-11-25T14:16:16.802Z,100683.66
2018-11-25T14:18:45.464Z,100686.20
2018-11-25T14:21:15.670Z,100686.53
2018-11-25T14:23:43.044Z,100689.61
2018-11-25T14:26:16.272Z,100689.17
2018-11-25T14:28:45.364Z,100692.53
2018-11-25T14:31:13.956Z,100699.70
2018-11-25T14:33:42.570Z,100694.56
2018-11-25T14:36:11.269Z,100692.45
2018-11-25T14:38:40.184Z,100696.77
2018-11-25T14:41:08.745Z,100698.05
2018-11-25T14:43:37.569Z,100690.52
2018-11-25T14:46:06.304Z,100694.72
2018-11-25T14:48:34.976Z,100692.95
2018-11-25T14:51:03.627Z,100690.77
2018-11-25T14:53:32.402Z,100696.24
2018-11-25T14:56:01.112Z,100687.32
2018-11-25T14:58:29.802Z,100689.83
2018-11-25T15:00:58.384Z,100688.09
2018-11-25T15:03:27.076Z,100685.13
2018-11-25T15:05:55.737Z,100689.45
2018-11-25T15:08:25.954Z,100690.73
2018-11-25T15:10:54.581Z,100692.45
2018-11-25T15:13:23.173Z,100692.53
2018-11-25T15:15:51.842Z,100697.14
2018-11-25T15:18:20.499Z,100698.91
2018-11-25T15:20:49.244Z,100703.64
2018-11-25T15:23:17.863Z,100704.00
2018-11-25T15:25:48.506Z,100703.88
2018-11-25T15:28:17.226Z,100704.70
2018-11-25T15:30:45.910Z,100705.11
2018-11-25T15:33:14.599Z,100711.12
2018-11-25T15:35:43.266Z,100709.40
2018-11-25T15:38:11.936Z,100706.93
2018-11-25T15:40:41.129Z,100708.61
2018-11-25T15:43:11.069Z,100702.24
2018-11-25T15:45:39.845Z,100704.34
2018-11-25T15:48:17.696Z,100703.89
2018-11-25T15:50:46.463Z,100704.30
2018-11-25T15:53:15.356Z,100706.02
2018-11-25T15:55:45.643Z,100708.13
2018-11-25T15:58:14.291Z,100707.67
2018-11-25T16:00:44.871Z,100703.80
2018-11-25T16:03:14.527Z,100708.53
2018-11-25T16:05:45.791Z,100705.58
2018-11-25T16:08:14.475Z,100709.89
2018-11-25T16:10:43.025Z,100705.70
2018-11-25T16:13:11.700Z,100706.56
2018-11-25T16:15:40.463Z,100709.97
2018-11-25T16:18:09.135Z,100711.70
2018-11-25T16:27:24.326Z,100708.70
2018-11-25T16:29:53.033Z,100708.29
2018-11-25T16:32:21.860Z,100704.50
2018-11-25T16:34:50.502Z,100706.19
2018-11-25T16:37:19.121Z,100700.55
2018-11-25T16:39:47.868Z,100696.77
2018-11-25T16:42:16.517Z,100701.09
2018-11-25T16:44:45.115Z,100704.09
2018-11-25T16:47:13.834Z,100703.19
2018-11-25T16:49:42.522Z,100702.24
2018-11-25T16:52:11.165Z,100706.56
2018-11-25T16:54:39.891Z,100696.36
2018-11-25T16:57:08.577Z,100697.63
2018-11-25T16:59:37.197Z,100704.50
2018-11-25T17:02:05.988Z,100696.41
2018-11-25T17:04:34.752Z,100695.91
2018-11-25T17:07:03.450Z,100695.95
2018-11-25T17:09:32.106Z,100694.11
2018-11-25T17:12:00.737Z,100696.24
2018-11-25T17:14:33.810Z,100694.09
2018-11-25T17:16:58.259Z,100697.52
2018-11-25T17:19:26.893Z,100700.92
2018-11-25T17:21:55.735Z,100700.47
2018-11-25T17:24:24.484Z,100697.09
2018-11-25T17:26:53.230Z,100694.14
2018-11-25T17:29:21.808Z,100692.95
2018-11-25T17:31:50.349Z,100695.38
2018-11-25T17:34:19.130Z,100699.24
2018-11-25T17:36:48.279Z,100707.34
2018-11-25T17:39:17.254Z,100708.25
2018-11-25T17:41:46.113Z,100702.66
2018-11-25T17:44:14.734Z,100705.58
2018-11-25T17:46:43.325Z,100700.19
2018-11-25T17:49:12.073Z,100706.06
2018-11-25T17:51:40.876Z,100708.98
2018-11-25T17:54:09.674Z,100706.06
2018-11-25T17:56:39.309Z,100708.57
2018-11-25T17:59:08.156Z,100720.58
2018-11-25T18:01:36.876Z,100722.76
2018-11-25T18:04:05.770Z,100712.97
2018-11-25T18:06:34.453Z,100726.59
2018-11-25T18:09:03.275Z,100724.03
2018-11-25T18:11:32.003Z,100727.05
2018-11-25T18:14:00.655Z,100730.09
2018-11-25T18:16:29.395Z,100723.30
2018-11-25T18:19:09.035Z,100725.85
2018-11-25T18:21:37.719Z,100734.78
2018-11-25T18:24:06.609Z,100728.00
2018-11-25T18:26:35.534Z,100730.59
2018-11-25T18:29:05.209Z,100729.27
2018-11-25T18:31:34.733Z,100725.04
2018-11-25T18:34:03.769Z,100726.84
2018-11-25T18:36:32.541Z,100732.03
2018-11-25T18:39:02.332Z,100727.75
2018-11-25T18:41:30.960Z,100732.86
2018-11-25T18:43:59.746Z,100733.30
2018-11-25T18:46:28.454Z,100728.21
2018-11-25T18:48:57.217Z,100726.03
2018-11-25T18:51:25.845Z,100733.18
2018-11-25T18:53:54.589Z,100730.63
2018-11-25T18:56:23.414Z,100736.55
2018-11-25T18:58:52.183Z,100739.14
2018-11-25T19:01:32.627Z,100742.97
2018-11-25T19:04:01.619Z,100737.33
2018-11-25T19:06:30.261Z,100730.50
2018-11-25T19:08:58.881Z,100730.50
2018-11-25T19:11:27.797Z,100734.37
2018-11-25T19:13:56.417Z,100738.23
2018-11-25T19:16:25.186Z,100730.22
2018-11-25T19:18:53.882Z,100734.91
2018-11-25T19:21:22.550Z,100733.96
2018-11-25T19:23:51.770Z,100728.41
2018-11-25T19:26:20.367Z,100723.71
2018-11-25T19:28:48.952Z,100724.13
2018-11-25T19:31:17.583Z,100721.16
2018-11-25T19:33:46.237Z,100727.95
2018-11-25T19:36:14.937Z,100729.72
2018-11-25T19:38:44.259Z,100728.45
2018-11-25T19:41:12.996Z,100732.77
2018-11-25T19:43:41.625Z,100726.44
2018-11-25T19:46:11.117Z,100723.06
2018-11-25T19:48:39.947Z,100731.21
2018-11-25T19:51:16.785Z,100721.83
2018-11-25T19:53:37.522Z,100732.81
2018-11-25T19:56:06.402Z,100733.22
2018-11-25T19:58:35.278Z,100743.47
2018-11-25T20:01:04.161Z,100736.68
2018-11-25T20:03:32.864Z,100737.50
2018-11-25T20:06:01.780Z,100731.91
2018-11-25T20:08:30.390Z,100740.05
2018-11-25T20:11:00.816Z,100740.05
2018-11-25T20:13:29.370Z,100744.70
2018-11-25T20:16:03.482Z,100745.56
2018-11-25T20:18:32.216Z,100746.47
2018-11-25T20:21:06.963Z,100749.89
2018-11-25T20:23:35.974Z,100752.03
2018-11-25T20:26:04.602Z,100756.67
2018-11-25T20:28:33.333Z,100758.32
2018-11-25T20:31:02.788Z,100753.58
2018-11-25T20:33:36.736Z,100754.73
2018-11-25T20:36:05.855Z,100761.23
2018-11-25T20:38:39.501Z,100763.83
2018-11-25T20:41:08.285Z,100765.06
2018-11-25T20:43:36.955Z,100771.48
2018-11-25T20:46:11.405Z,100770.56
2018-11-25T20:48:40.195Z,100770.88
2018-11-25T20:51:08.816Z,100761.09
2018-11-25T20:53:42.765Z,100760.27
2018-11-25T20:56:11.442Z,100763.37
2018-11-25T20:58:40.074Z,100759.19
2018-11-25T21:01:08.777Z,100759.63
2018-11-25T21:03:37.475Z,100748.56
2018-11-25T21:06:06.367Z,100751.16
2018-11-25T21:08:35.044Z,100750.38
2018-11-25T21:11:03.653Z,100747.75
2018-11-25T21:13:32.317Z,100739.19
2018-11-25T21:16:00.945Z,100741.37
2018-11-25T21:18:29.582Z,100740.14
2018-11-25T21:20:58.182Z,100738.49
2018-11-25T21:23:26.964Z,100741.91
2018-11-25T21:25:55.508Z,100741.91
2018-11-25T21:28:24.077Z,100743.23
2018-11-25T21:30:52.724Z,100737.26
2018-11-25T21:33:21.273Z,100747.45
2018-11-25T21:35:49.946Z,100747.92
2018-11-25T21:38:18.652Z,100747.50
2018-11-25T21:40:47.393Z,100751.38
2018-11-25T21:43:16.042Z,100749.69
2018-11-25T21:45:44.633Z,100753.93
2018-11-25T21:48:14.959Z,100753.97
2018-11-25T21:50:43.518Z,100749.65
2018-11-25T21:53:12.271Z,100755.16
2018-11-25T21:55:40.893Z,100753.39
2018-11-25T21:58:09.457Z,100749.94
2018-11-25T22:00:38.238Z,100751.28
2018-11-25T22:03:06.868Z,100747.88
2018-11-25T22:05:35.632Z,100743.59
2018-11-25T22:08:04.514Z,100742.28
2018-11-25T22:10:33.228Z,100738.00
2018-11-25T22:13:03.176Z,100743.52
2018-11-25T22:15:32.018Z,100750.02
2018-11-25T22:18:00.922Z,100748.66
2018-11-25T22:20:29.808Z,100749.94
2018-11-25T22:22:58.561Z,100757.58
2018-11-25T22:25:27.154Z,100758.86
2018-11-25T22:27:55.824Z,100759.35
2018-11-25T22:30:25.000Z,100767.46
2018-11-25T22:32:53.747Z,100765.36
2018-11-25T22:35:23.481Z,100771.38
2018-11-25T22:37:52.219Z,100772.19
2018-11-25T22:40:21.353Z,100772.61
2018-11-25T22:42:51.014Z,100767.17
2018-11-25T22:45:23.500Z,100757.34
2018-11-25T22:47:52.134Z,100763.34
2018-11-25T22:50:25.546Z,100760.39
2018-11-25T22:52:50.997Z,100761.70
2018-11-25T22:55:21.022Z,100766.31
2018-11-25T22:57:49.731Z,100764.66
2018-11-25T23:00:36.852Z,100767.55
2018-11-25T23:03:05.756Z,100768.03
2018-11-25T23:05:45.665Z,100765.48
2018-11-25T23:08:14.362Z,100771.45
2018-11-25T23:10:42.991Z,100757.70
2018-11-25T23:13:11.663Z,100760.75
2018-11-25T23:15:40.382Z,100761.63
2018-11-25T23:18:09.070Z,100759.03
2018-11-25T23:20:37.818Z,100754.67
2018-11-25T23:23:07.228Z,100746.11
2018-11-25T23:25:35.846Z,100748.66
2018-11-25T23:28:04.460Z,100748.70
2018-11-25T23:30:33.099Z,100750.80
2018-11-25T23:33:01.650Z,100753.39
2018-11-25T23:35:31.474Z,100752.11
2018-11-25T23:38:00.033Z,100746.92
2018-11-25T23:40:28.587Z,100755.84
2018-11-25T23:42:57.298Z,100749.47
2018-11-25T23:45:25.848Z,100746.92
2018-11-25T23:47:54.577Z,100747.83
2018-11-25T23:50:23.221Z,100745.69
2018-11-25T23:52:51.766Z,100743.59
2018-11-25T23:55:20.381Z,100752.48
2018-11-25T23:57:49.064Z,100753.80
